Time;durP1;ratioP1;P1;durP2;ratioP2;P2;SDS_P1;SDS_P2;PMS_P1;PMS_P2;Temp;Humidity;BMP_temperature;BMP_pressure;BME280_temperature;BME280_humidity;BME280_pressure;Samples;Min_cycle;Max_cycle;Signal;HPM_P1;HPM_P2
2021/11/24 00:01:03;;;;;;;4.10;3.70;;;22.50;35.90;;;;;;5030567;28;20399;-71
2021/11/24 00:03:29;;;;;;;4.05;3.63;;;22.50;36.10;;;;;;5030258;28;20423;-71
2021/11/24 00:05:55;;;;;;;4.37;3.97;;;22.40;35.80;;;;;;5031805;28;20830;-71
2021/11/24 00:08:20;;;;;;;4.30;3.78;;;22.40;35.80;;;;;;5031512;28;20445;-71
2021/11/24 00:10:46;;;;;;;4.20;3.80;;;22.40;35.90;;;;;;5030335;28;20469;-71
2021/11/24 00:13:11;;;;;;;4.33;3.90;;;22.40;35.90;;;;;;5031676;28;20391;-72
2021/11/24 00:15:37;;;;;;;4.32;3.92;;;22.40;35.70;;;;;;5030472;28;20473;-71
2021/11/24 00:18:03;;;;;;;4.80;3.97;;;22.40;35.70;;;;;;5030403;28;20396;-71
2021/11/24 00:20:29;;;;;;;4.25;3.85;;;22.40;36.00;;;;;;5031626;28;20482;-71
2021/11/24 00:22:54;;;;;;;4.43;3.90;;;22.40;35.70;;;;;;5030257;28;20457;-70
2021/11/24 00:25:20;;;;;;;4.43;3.80;;;22.40;35.90;;;;;;5031612;28;20438;-69
2021/11/24 00:27:47;;;;;;;4.37;3.57;;;22.40;35.70;;;;;;5030266;28;20384;-71
2021/11/24 00:30:13;;;;;;;4.00;3.50;;;22.30;36.20;;;;;;5031596;28;20440;-70
2021/11/24 00:32:38;;;;;;;4.10;3.70;;;22.30;35.70;;;;;;5031583;28;20851;-71
2021/11/24 00:35:06;;;;;;;3.67;3.20;;;22.30;35.60;;;;;;5031401;28;20387;-70
2021/11/24 00:37:32;;;;;;;4.53;3.50;;;22.30;35.80;;;;;;5030241;28;20391;-71
2021/11/24 00:39:58;;;;;;;3.95;3.40;;;22.30;35.60;;;;;;5030119;28;20876;-71
2021/11/24 00:42:24;;;;;;;3.65;3.22;;;22.30;35.60;;;;;;5030108;28;20391;-71
2021/11/24 00:44:49;;;;;;;4.13;3.53;;;22.30;36.30;;;;;;5031275;28;20411;-71
2021/11/24 00:47:15;;;;;;;3.80;3.35;;;22.30;35.50;;;;;;5030135;28;20397;-70
2021/11/24 00:49:41;;;;;;;3.57;3.10;;;22.30;36.20;;;;;;5030123;28;20449;-71
2021/11/24 00:52:08;;;;;;;4.50;3.60;;;22.30;35.70;;;;;;5031460;28;20880;-71
2021/11/24 00:54:34;;;;;;;3.80;3.22;;;22.30;37.00;;;;;;5031237;28;20445;-72
2021/11/24 00:57:00;;;;;;;3.63;3.28;;;22.30;35.50;;;;;;5031466;28;20792;-70
2021/11/24 00:59:25;;;;;;;3.75;3.35;;;22.30;35.30;;;;;;5031183;28;20893;-70
2021/11/24 01:01:51;;;;;;;3.92;3.53;;;22.30;35.50;;;;;;5030151;28;20441;-70
2021/11/24 01:04:17;;;;;;;3.97;3.33;;;22.30;35.30;;;;;;5029793;28;20498;-71
2021/11/24 01:06:43;;;;;;;3.57;3.27;;;22.30;35.20;;;;;;5032709;28;20429;-71
2021/11/24 01:09:09;;;;;;;3.50;3.20;;;22.30;35.20;;;;;;5034791;28;20399;-68
2021/11/24 01:11:35;;;;;;;3.35;2.97;;;22.30;35.20;;;;;;5033286;28;20383;-69
2021/11/24 01:14:02;;;;;;;4.03;3.40;;;22.30;35.30;;;;;;5034731;28;20418;-70
2021/11/24 01:16:27;;;;;;;3.50;3.20;;;22.30;35.20;;;;;;5034769;28;20402;-71
2021/11/24 01:18:53;;;;;;;3.50;3.20;;;22.30;35.30;;;;;;5034534;28;20889;-70
2021/11/24 01:21:18;;;;;;;3.63;3.10;;;22.20;35.50;;;;;;5034554;28;20390;-71
2021/11/24 01:23:46;;;;;;;3.47;3.17;;;22.30;35.30;;;;;;5034462;28;20446;-69
2021/11/24 01:26:12;;;;;;;3.50;3.20;;;22.20;35.20;;;;;;5034452;28;20460;-68
2021/11/24 01:28:38;;;;;;;3.63;3.30;;;22.20;35.30;;;;;;5034575;28;20878;-69
2021/11/24 01:31:04;;;;;;;3.40;3.10;;;22.20;35.50;;;;;;5033154;28;20402;-71
2021/11/24 01:33:30;;;;;;;3.20;2.90;;;22.20;35.40;;;;;;5032887;28;20889;-70
2021/11/24 01:35:56;;;;;;;2.92;2.60;;;22.20;35.30;;;;;;5032995;28;20396;-69
2021/11/24 01:38:21;;;;;;;3.28;2.97;;;22.20;35.90;;;;;;5034532;28;20391;-71
2021/11/24 01:40:47;;;;;;;3.28;2.97;;;22.20;35.60;;;;;;5033128;28;20403;-70
2021/11/24 01:43:13;;;;;;;3.15;2.85;;;22.20;36.10;;;;;;5032941;28;20411;-71
2021/11/24 01:45:39;;;;;;;3.20;2.90;;;22.20;36.20;;;;;;5034111;28;20769;-71
2021/11/24 01:48:05;;;;;;;3.50;2.87;;;22.20;35.90;;;;;;5032682;28;20429;-72
2021/11/24 01:50:31;;;;;;;3.33;3.00;;;22.20;36.20;;;;;;5034159;28;20904;-72
2021/11/24 01:52:57;;;;;;;3.15;2.80;;;22.20;35.40;;;;;;5034073;28;20391;-72
2021/11/24 01:55:22;;;;;;;3.13;2.83;;;22.10;35.40;;;;;;5033948;28;20437;-72
2021/11/24 01:57:50;;;;;;;3.00;2.70;;;22.10;35.70;;;;;;5032736;28;20399;-71
2021/11/24 02:00:21;;;;;;;3.50;2.90;;;22.10;35.30;;;;;;5033909;28;20444;-71
2021/11/24 02:02:47;;;;;;;3.28;2.95;;;22.10;35.50;;;;;;5033605;28;20398;-71
2021/11/24 02:05:13;;;;;;;3.03;2.72;;;22.10;35.20;;;;;;5032536;28;20415;-71
2021/11/24 02:07:38;;;;;;;3.73;3.00;;;22.20;35.20;;;;;;5033684;28;20391;-71
2021/11/24 02:10:04;;;;;;;3.20;2.90;;;22.10;35.10;;;;;;5032543;28;20392;-71
2021/11/24 02:12:30;;;;;;;3.53;2.97;;;22.10;35.30;;;;;;5033604;28;20409;-71
2021/11/24 02:14:56;;;;;;;3.15;2.85;;;22.10;35.10;;;;;;5032425;28;20880;-69
2021/11/24 02:17:22;;;;;;;3.55;2.90;;;22.10;35.10;;;;;;5032672;28;20418;-69
2021/11/24 02:19:47;;;;;;;3.20;2.80;;;22.10;34.80;;;;;;5033559;28;20393;-71
2021/11/24 02:22:13;;;;;;;3.08;2.70;;;22.10;34.80;;;;;;5032304;28;20907;-71
2021/11/24 02:24:40;;;;;;;3.00;2.70;;;22.20;34.90;;;;;;5033155;28;20433;-69
2021/11/24 02:27:09;;;;;;;3.10;2.78;;;22.10;34.80;;;;;;5032424;28;20398;-71
2021/11/24 02:29:36;;;;;;;3.10;2.65;;;22.10;34.80;;;;;;5032060;28;20406;-72
2021/11/24 02:32:04;;;;;;;3.08;2.63;;;22.10;34.90;;;;;;5032148;28;20426;-72
2021/11/24 02:34:30;;;;;;;3.00;2.50;;;22.10;35.00;;;;;;5032048;28;20391;-70
2021/11/24 02:36:57;;;;;;;3.00;2.67;;;22.10;35.00;;;;;;5031991;28;20395;-69
2021/11/24 02:39:23;;;;;;;3.03;2.60;;;22.10;34.90;;;;;;5031951;28;20403;-70
2021/11/24 02:41:49;;;;;;;3.10;2.80;;;22.10;35.00;;;;;;5031871;28;20441;-71
2021/11/24 02:44:21;;;;;;;2.93;2.60;;;22.10;35.00;;;;;;5031747;28;20414;-71
2021/11/24 02:46:47;;;;;;;3.00;2.63;;;22.10;34.90;;;;;;5031819;28;20394;-70
2021/11/24 02:49:13;;;;;;;2.80;2.50;;;22.10;35.00;;;;;;5033061;28;20749;-70
2021/11/24 02:51:40;;;;;;;3.05;2.60;;;22.10;35.20;;;;;;5033038;28;20884;-71
2021/11/24 02:54:06;;;;;;;2.50;2.30;;;22.00;35.70;;;;;;5033018;28;20434;-71
2021/11/24 02:56:32;;;;;;;2.60;2.40;;;22.10;35.10;;;;;;5032964;28;20418;-71
2021/11/24 02:58:57;;;;;;;2.63;2.40;;;22.10;35.20;;;;;;5032859;28;20410;-72
2021/11/24 03:01:23;;;;;;;2.83;2.40;;;22.00;35.70;;;;;;5032800;28;20873;-71
2021/11/24 03:03:49;;;;;;;2.63;2.30;;;22.10;35.00;;;;;;5032726;28;20902;-69
2021/11/24 03:06:14;;;;;;;2.85;2.33;;;22.00;35.50;;;;;;5032719;28;20371;-71
2021/11/24 03:08:41;;;;;;;2.60;2.00;;;22.00;35.20;;;;;;5032600;28;20399;-71
2021/11/24 03:11:06;;;;;;;2.60;2.40;;;22.00;35.40;;;;;;5032673;28;20533;-69
2021/11/24 03:13:32;;;;;;;2.90;2.20;;;22.00;35.10;;;;;;5032559;28;20994;-71
2021/11/24 03:15:58;;;;;;;2.30;2.10;;;22.00;35.10;;;;;;5032576;28;20750;-71
2021/11/24 03:18:23;;;;;;;2.60;2.20;;;22.00;35.50;;;;;;5032476;28;20395;-71
2021/11/24 03:20:49;;;;;;;2.73;2.27;;;22.00;34.90;;;;;;5032460;28;20379;-71
2021/11/24 03:23:14;;;;;;;2.42;2.22;;;22.00;35.30;;;;;;5032374;28;20754;-70
2021/11/24 03:25:40;;;;;;;2.40;2.00;;;22.00;34.80;;;;;;5032247;28;20919;-71
2021/11/24 03:28:06;;;;;;;2.30;1.90;;;22.00;34.80;;;;;;5032054;28;20462;-71
2021/11/24 03:30:33;;;;;;;2.10;1.83;;;22.00;34.80;;;;;;5031568;28;20765;-70
2021/11/24 03:33:00;;;;;;;2.47;2.10;;;22.00;34.70;;;;;;5032297;28;20753;-72
2021/11/24 03:35:27;;;;;;;2.15;1.90;;;22.00;34.70;;;;;;5030954;28;20399;-69
2021/11/24 03:37:55;;;;;;;2.28;1.92;;;22.00;34.70;;;;;;5032162;28;20423;-70
2021/11/24 03:40:23;;;;;;;2.13;1.92;;;22.00;34.60;;;;;;5032145;28;20445;-70
2021/11/24 03:42:50;;;;;;;2.00;1.75;;;22.00;34.60;;;;;;5032104;28;20398;-70
2021/11/24 03:45:22;;;;;;;2.30;1.88;;;22.00;34.70;;;;;;5031978;28;20442;-72
2021/11/24 03:47:49;;;;;;;2.00;1.70;;;22.00;34.70;;;;;;5032054;28;20398;-71
2021/11/24 03:50:15;;;;;;;2.38;1.73;;;22.00;35.00;;;;;;5031939;28;20396;-71
2021/11/24 03:52:42;;;;;;;2.00;1.80;;;22.00;34.80;;;;;;5032064;28;20387;-71
2021/11/24 03:55:09;;;;;;;1.85;1.65;;;22.00;35.00;;;;;;5032056;28;20799;-71
2021/11/24 03:57:34;;;;;;;2.20;1.90;;;22.00;34.90;;;;;;5031867;28;20757;-70
2021/11/24 04:00:00;;;;;;;2.20;1.88;;;22.00;34.80;;;;;;5031831;28;20400;-72
2021/11/24 04:02:26;;;;;;;1.90;1.70;;;22.00;34.80;;;;;;5031951;28;20443;-71
2021/11/24 04:04:52;;;;;;;2.00;1.80;;;22.00;35.10;;;;;;5031722;28;20415;-69
2021/11/24 04:07:18;;;;;;;2.58;1.90;;;22.00;35.10;;;;;;5031786;28;20430;-68
2021/11/24 04:09:44;;;;;;;2.45;1.70;;;22.00;35.30;;;;;;5031739;28;20395;-71
2021/11/24 04:12:10;;;;;;;1.90;1.67;;;22.00;35.70;;;;;;5031900;28;20862;-69
2021/11/24 04:14:35;;;;;;;3.38;2.58;;;22.10;34.60;;;;;;5031978;28;20387;-69
2021/11/24 04:17:02;;;;;;;4.15;2.42;;;22.20;36.30;;;;;;5032018;28;20387;-70
2021/11/24 04:19:28;;;;;;;4.18;1.90;;;22.20;37.00;;;;;;5033832;28;20734;-70
2021/11/24 04:21:53;;;;;;;3.83;1.70;;;22.20;37.00;;;;;;5032914;28;20455;-71
2021/11/24 04:24:19;;;;;;;3.53;1.90;;;22.20;37.90;;;;;;5031344;28;20458;-70
2021/11/24 04:26:44;;;;;;;4.57;2.00;;;22.30;37.30;;;;;;5031501;28;20841;-69
2021/11/24 04:29:10;;;;;;;10.60;2.08;;;22.30;37.60;;;;;;5031614;28;20761;-70
2021/11/24 04:31:36;;;;;;;4.00;1.80;;;22.30;37.40;;;;;;5031591;28;20394;-71
2021/11/24 04:34:02;;;;;;;3.70;1.58;;;22.30;36.90;;;;;;5031325;28;20391;-69
2021/11/24 04:36:28;;;;;;;4.72;1.77;;;22.40;37.40;;;;;;5029806;28;20395;-71
2021/11/24 04:38:53;;;;;;;3.57;1.70;;;22.40;37.30;;;;;;5029755;28;20402;-69
2021/11/24 04:41:19;;;;;;;4.00;1.80;;;22.40;37.50;;;;;;5033454;28;20391;-70
2021/11/24 04:43:47;;;;;;;3.90;1.50;;;22.40;36.80;;;;;;5033106;28;20931;-70
2021/11/24 04:46:15;;;;;;;3.78;1.60;;;22.40;36.80;;;;;;5033549;28;20815;-71
2021/11/24 04:48:41;;;;;;;4.20;1.63;;;22.40;36.60;;;;;;5034944;28;20383;-71
2021/11/24 04:51:07;;;;;;;4.00;1.60;;;22.40;36.50;;;;;;5034031;28;20411;-70
2021/11/24 04:53:33;;;;;;;4.17;1.70;;;22.40;36.50;;;;;;5034037;28;20395;-71
2021/11/24 04:55:59;;;;;;;4.82;1.52;;;22.30;36.30;;;;;;5035209;28;20410;-72
2021/11/24 04:58:24;;;;;;;4.60;1.65;;;22.30;36.30;;;;;;5033579;28;20466;-70
2021/11/24 05:00:50;;;;;;;4.47;1.70;;;22.30;36.40;;;;;;5034785;28;20403;-69
2021/11/24 05:03:16;;;;;;;5.25;1.65;;;22.30;36.70;;;;;;5033783;28;20429;-71
2021/11/24 05:05:42;;;;;;;5.72;1.70;;;22.30;36.70;;;;;;5034786;28;20869;-69
2021/11/24 05:08:08;;;;;;;4.30;1.50;;;22.30;36.50;;;;;;5034831;28;20391;-70
2021/11/24 05:10:34;;;;;;;3.67;1.50;;;22.30;36.70;;;;;;5033493;28;20482;-71
2021/11/24 05:13:00;;;;;;;4.07;1.52;;;22.30;36.60;;;;;;5033695;28;20757;-71
2021/11/24 05:15:29;;;;;;;5.47;1.30;;;22.30;36.50;;;;;;5034691;28;20391;-69
2021/11/24 05:18:01;;;;;;;3.53;1.40;;;22.30;36.30;;;;;;5033425;28;20395;-69
2021/11/24 05:20:30;;;;;;;3.95;1.20;;;22.30;36.50;;;;;;5033520;28;20490;-70
2021/11/24 05:22:59;;;;;;;3.00;1.58;;;22.30;36.70;;;;;;5033278;28;20383;-69
2021/11/24 05:25:26;;;;;;;3.47;1.40;;;22.30;36.70;;;;;;5033060;28;20449;-71
2021/11/24 05:27:53;;;;;;;3.08;1.40;;;22.20;36.90;;;;;;5034633;28;20395;-69
2021/11/24 05:30:19;;;;;;;4.80;1.60;;;22.30;36.40;;;;;;5033586;28;20403;-68
2021/11/24 05:32:44;;;;;;;4.88;1.42;;;22.30;36.20;;;;;;5031732;28;20391;-73
2021/11/24 05:35:10;;;;;;;4.10;1.43;;;22.20;36.60;;;;;;5033764;28;20387;-70
2021/11/24 05:37:36;;;;;;;3.25;1.30;;;22.20;36.40;;;;;;5033520;28;20383;-70
2021/11/24 05:40:02;;;;;;;2.47;1.27;;;22.20;36.70;;;;;;5032050;28;20453;-72
2021/11/24 05:42:28;;;;;;;3.20;1.60;;;22.20;36.40;;;;;;5034125;28;20870;-72
2021/11/24 05:45:12;;;;;;;3.80;1.40;;;22.20;36.30;;;;;;5034196;28;20422;-73
2021/11/24 05:47:54;;;;;;;3.25;1.30;;;22.10;36.20;;;;;;5032983;28;20497;-70
2021/11/24 05:50:21;;;;;;;2.90;1.13;;;22.10;36.70;;;;;;5034326;28;20395;-70
2021/11/24 05:52:48;;;;;;;2.85;1.42;;;22.20;36.50;;;;;;5033004;28;20387;-69
2021/11/24 05:55:14;;;;;;;3.65;1.55;;;22.10;35.70;;;;;;5032883;28;20423;-68
2021/11/24 05:57:39;;;;;;;6.30;3.33;;;22.20;36.50;;;;;;5033956;28;20976;-69
2021/11/24 06:00:07;;;;;;;5.10;3.53;;;22.40;37.20;;;;;;5033832;28;20391;-71
2021/11/24 06:02:32;;;;;;;4.45;2.40;;;22.50;38.60;;;;;;5031345;28;20406;-68
2021/11/24 06:04:58;;;;;;;3.83;2.20;;;22.50;39.10;;;;;;5032388;28;20423;-70
2021/11/24 06:07:24;;;;;;;4.18;2.10;;;22.50;38.40;;;;;;5033676;28;20395;-73
2021/11/24 06:09:49;;;;;;;4.15;1.70;;;22.50;38.00;;;;;;5033468;28;20399;-73
2021/11/24 06:12:15;;;;;;;3.38;2.00;;;22.50;38.10;;;;;;5033861;28;20386;-69
2021/11/24 06:14:42;;;;;;;3.17;1.90;;;22.50;37.70;;;;;;5033635;28;20453;-70
2021/11/24 06:17:07;;;;;;;3.20;1.60;;;22.50;38.10;;;;;;5033735;28;20395;-69
2021/11/24 06:19:33;;;;;;;3.03;1.43;;;22.50;37.90;;;;;;5033545;28;20403;-70
2021/11/24 06:21:59;;;;;;;2.88;1.58;;;22.50;37.90;;;;;;5033031;28;20379;-67
2021/11/24 06:24:25;;;;;;;2.63;1.50;;;22.40;37.10;;;;;;5033563;28;20427;-68
2021/11/24 06:26:51;;;;;;;2.53;1.53;;;22.50;37.20;;;;;;5033677;28;20753;-70
2021/11/24 06:29:16;;;;;;;3.38;1.55;;;22.50;37.50;;;;;;5033727;28;20391;-70
2021/11/24 06:31:42;;;;;;;3.23;1.60;;;22.50;37.60;;;;;;5030800;28;20395;-69
2021/11/24 06:34:07;;;;;;;3.78;1.40;;;22.50;37.30;;;;;;5025690;28;20478;-71
2021/11/24 06:36:33;;;;;;;2.47;1.30;;;22.50;36.90;;;;;;5032212;28;20403;-70
2021/11/24 06:38:59;;;;;;;2.63;1.55;;;22.50;37.50;;;;;;5032887;28;20387;-70
2021/11/24 06:41:24;;;;;;;1.83;1.40;;;22.40;37.50;;;;;;5033073;28;20438;-68
2021/11/24 06:43:50;;;;;;;2.73;1.47;;;22.40;37.60;;;;;;5032698;28;20411;-70
2021/11/24 06:46:16;;;;;;;3.55;1.40;;;22.30;37.50;;;;;;5032844;28;20426;-72
2021/11/24 06:48:41;;;;;;;3.67;1.50;;;22.30;36.90;;;;;;5017756;28;20750;-70
2021/11/24 06:51:08;;;;;;;2.72;1.20;;;22.30;37.30;;;;;;5031831;28;20402;-74
2021/11/24 06:53:34;;;;;;;2.17;1.40;;;22.30;37.30;;;;;;5032021;28;20391;-70
2021/11/24 06:56:00;;;;;;;2.90;1.43;;;22.30;37.30;;;;;;5031214;28;20481;-68
2021/11/24 06:58:25;;;;;;;2.40;1.20;;;22.30;37.30;;;;;;5031593;28;20804;-68
2021/11/24 07:00:51;;;;;;;2.47;1.30;;;22.20;37.10;;;;;;5031720;28;20391;-72
2021/11/24 07:03:17;;;;;;;1.77;1.30;;;22.20;37.10;;;;;;5031027;28;20457;-67
2021/11/24 07:05:42;;;;;;;1.67;1.30;;;22.30;36.80;;;;;;5031647;28;20391;-71
2021/11/24 07:08:08;;;;;;;3.03;1.25;;;22.20;36.60;;;;;;5032240;28;20391;-70
2021/11/24 07:10:34;;;;;;;3.42;1.40;;;22.20;36.80;;;;;;5032387;28;20996;-71
2021/11/24 07:13:01;;;;;;;5.38;1.42;;;22.20;36.80;;;;;;5032535;28;20892;-72
2021/11/24 07:15:27;;;;;;;2.17;1.40;;;22.20;36.90;;;;;;5032059;28;20433;-70
2021/11/24 07:17:53;;;;;;;2.40;1.50;;;22.10;36.60;;;;;;5032100;28;20395;-68
2021/11/24 07:20:19;;;;;;;2.00;1.20;;;22.10;36.60;;;;;;5033182;28;20535;-71
2021/11/24 07:22:45;;;;;;;3.30;1.40;;;22.10;36.30;;;;;;5032282;28;20465;-68
2021/11/24 07:25:11;;;;;;;3.60;1.40;;;22.20;36.20;;;;;;5032040;28;20773;-71
2021/11/24 07:27:37;;;;;;;2.90;1.30;;;22.10;36.40;;;;;;5030757;28;20387;-68
2021/11/24 07:30:05;;;;;;;2.72;1.30;;;22.10;36.60;;;;;;5030703;28;20457;-71
2021/11/24 07:32:31;;;;;;;2.25;1.30;;;22.10;36.60;;;;;;5030892;28;20387;-72
2021/11/24 07:34:56;;;;;;;1.73;1.10;;;22.00;36.60;;;;;;5030743;28;20463;-69
2021/11/24 07:37:22;;;;;;;2.27;1.40;;;22.00;36.60;;;;;;5032146;28;20517;-71
2021/11/24 07:39:48;;;;;;;2.25;1.20;;;22.00;36.60;;;;;;5029829;28;20403;-69
2021/11/24 07:42:13;;;;;;;2.33;1.10;;;22.00;36.50;;;;;;5029946;28;20391;-67
2021/11/24 07:44:40;;;;;;;2.40;1.25;;;22.00;36.50;;;;;;5011390;28;20926;-69
2021/11/24 07:47:06;;;;;;;1.83;1.20;;;22.00;36.40;;;;;;5012138;28;20945;-69
2021/11/24 07:49:31;;;;;;;1.60;1.15;;;22.00;36.30;;;;;;5010559;28;20503;-68
2021/11/24 07:51:57;;;;;;;2.10;1.30;;;22.10;36.60;;;;;;5012149;28;20400;-69
2021/11/24 07:54:22;;;;;;;1.40;1.10;;;22.00;36.80;;;;;;5010633;28;20419;-69
2021/11/24 07:56:48;;;;;;;2.15;1.30;;;22.00;36.40;;;;;;5010788;28;20451;-69
2021/11/24 07:59:14;;;;;;;1.43;1.07;;;22.10;36.40;;;;;;5012096;28;20401;-69
2021/11/24 08:01:39;;;;;;;1.90;1.10;;;22.10;36.30;;;;;;5012055;28;20397;-68
2021/11/24 08:04:05;;;;;;;1.80;1.20;;;22.20;36.20;;;;;;5012120;28;20413;-69
2021/11/24 08:06:31;;;;;;;1.40;1.10;;;22.20;36.30;;;;;;5011946;28;20882;-68
2021/11/24 08:08:56;;;;;;;2.50;1.10;;;22.20;36.30;;;;;;5012019;28;20743;-69
2021/11/24 08:11:22;;;;;;;1.20;1.00;;;22.10;36.10;;;;;;5011220;28;20472;-69
2021/11/24 08:13:48;;;;;;;1.63;1.00;;;22.10;35.90;;;;;;5011579;28;20392;-69
2021/11/24 08:16:14;;;;;;;1.88;1.05;;;22.00;35.90;;;;;;5014244;28;20385;-72
2021/11/24 08:18:39;;;;;;;3.22;1.20;;;22.00;36.00;;;;;;5015834;28;20961;-72
2021/11/24 08:21:05;;;;;;;2.33;1.10;;;22.00;36.00;;;;;;5026103;28;20383;-68
2021/11/24 08:23:31;;;;;;;2.25;1.15;;;22.00;36.60;;;;;;5035401;28;20525;-72
2021/11/24 08:25:58;;;;;;;2.97;1.17;;;22.00;36.80;;;;;;5035514;28;20446;-70
2021/11/24 08:28:24;;;;;;;3.33;1.30;;;22.00;36.90;;;;;;5035279;28;20395;-70
2021/11/24 08:30:49;;;;;;;2.65;1.60;;;21.90;36.60;;;;;;5035446;28;20391;-73
2021/11/24 08:33:15;;;;;;;2.83;1.10;;;22.00;37.00;;;;;;5034224;28;20399;-70
2021/11/24 08:35:40;;;;;;;2.70;1.13;;;22.00;36.70;;;;;;5034121;28;20398;-70
2021/11/24 08:38:06;;;;;;;2.38;1.00;;;22.00;36.00;;;;;;5034008;28;20414;-69
2021/11/24 08:40:32;;;;;;;5.00;1.23;;;21.90;35.90;;;;;;5035082;28;20900;-69
2021/11/24 08:42:58;;;;;;;1.50;1.08;;;21.90;35.90;;;;;;5034924;28;20387;-69
2021/11/24 08:45:23;;;;;;;3.85;1.20;;;21.90;35.80;;;;;;5034722;28;20419;-72
2021/11/24 08:47:50;;;;;;;3.50;1.30;;;21.90;35.80;;;;;;5029219;28;20403;-70
2021/11/24 08:50:16;;;;;;;2.40;1.20;;;21.90;35.80;;;;;;5029602;28;20402;-71
2021/11/24 08:52:43;;;;;;;1.70;1.05;;;21.90;35.70;;;;;;5034238;28;20445;-70
2021/11/24 08:55:11;;;;;;;1.20;1.00;;;21.80;35.60;;;;;;5033845;28;20473;-70
2021/11/24 08:57:37;;;;;;;3.53;1.20;;;21.90;35.70;;;;;;5028261;28;20400;-70
2021/11/24 09:00:09;;;;;;;1.88;1.25;;;21.80;35.70;;;;;;5027549;28;20402;-69
2021/11/24 09:02:35;;;;;;;2.10;1.13;;;21.80;35.70;;;;;;5026088;28;20466;-68
2021/11/24 09:05:02;;;;;;;2.85;1.10;;;21.80;36.20;;;;;;5022662;28;21150;-70
2021/11/24 09:07:28;;;;;;;1.70;0.98;;;21.80;35.70;;;;;;5028089;28;20393;-69
2021/11/24 09:09:54;;;;;;;1.42;1.00;;;21.80;35.70;;;;;;5024355;28;20397;-68
2021/11/24 09:12:20;;;;;;;1.95;1.50;;;21.80;35.80;;;;;;5022225;28;20403;-69
2021/11/24 09:14:45;;;;;;;2.15;1.10;;;21.80;35.80;;;;;;5023526;28;20419;-67
2021/11/24 09:17:11;;;;;;;2.00;1.20;;;21.80;35.80;;;;;;5023842;28;20401;-69
2021/11/24 09:19:38;;;;;;;1.40;1.05;;;21.80;35.80;;;;;;5021976;28;20393;-70
2021/11/24 09:22:06;;;;;;;1.80;1.05;;;21.70;35.80;;;;;;5025472;28;20385;-70
2021/11/24 09:24:32;;;;;;;1.90;1.10;;;21.70;35.90;;;;;;5021843;28;20434;-68
2021/11/24 09:27:12;;;;;;;1.88;1.20;;;21.70;35.80;;;;;;5023320;28;20882;-68
2021/11/24 09:29:38;;;;;;;1.70;1.10;;;21.80;35.90;;;;;;5022121;28;20523;-68
2021/11/24 09:32:06;;;;;;;2.10;0.90;;;21.80;35.90;;;;;;5022839;28;20423;-68
2021/11/24 09:34:32;;;;;;;1.50;1.13;;;21.80;35.90;;;;;;5026919;28;20395;-69
2021/11/24 09:36:58;;;;;;;1.45;1.10;;;21.80;35.80;;;;;;5026336;28;20422;-68
2021/11/24 09:39:24;;;;;;;1.30;1.10;;;21.70;35.90;;;;;;5023392;28;20394;-69
2021/11/24 09:41:52;;;;;;;1.35;1.00;;;21.80;35.80;;;;;;5022921;28;20397;-69
2021/11/24 09:44:18;;;;;;;2.42;1.15;;;21.80;35.80;;;;;;5023506;28;20459;-68
2021/11/24 09:46:49;;;;;;;1.33;1.10;;;21.70;35.80;;;;;;5024270;28;20865;-68
2021/11/24 09:49:16;;;;;;;1.33;1.10;;;21.70;35.80;;;;;;5024071;28;20406;-70
2021/11/24 09:51:44;;;;;;;1.60;1.00;;;21.70;35.80;;;;;;5026044;28;20804;-68
2021/11/24 09:54:12;;;;;;;1.60;1.20;;;21.80;35.70;;;;;;5022774;28;20445;-68
2021/11/24 09:56:40;;;;;;;1.90;1.15;;;21.80;35.80;;;;;;5023210;28;21041;-69
2021/11/24 09:59:07;;;;;;;3.17;1.30;;;21.80;35.80;;;;;;5021127;28;20404;-68
2021/11/24 10:01:33;;;;;;;2.40;1.25;;;21.70;36.00;;;;;;5023489;28;20906;-70
2021/11/24 10:03:59;;;;;;;2.67;1.00;;;21.70;36.00;;;;;;5023598;28;20411;-70
2021/11/24 10:06:25;;;;;;;2.80;1.10;;;21.70;36.10;;;;;;5021258;28;20437;-69
2021/11/24 10:08:51;;;;;;;1.85;1.30;;;21.60;36.10;;;;;;5023252;28;20426;-68
2021/11/24 10:11:17;;;;;;;1.65;1.10;;;21.60;36.10;;;;;;5026387;28;20450;-68
2021/11/24 10:13:46;;;;;;;2.30;1.03;;;21.60;35.90;;;;;;5023826;28;20397;-69
2021/11/24 10:16:28;;;;;;;2.22;1.10;;;21.60;35.80;;;;;;5022003;28;20426;-70
2021/11/24 10:19:07;;;;;;;2.45;1.20;;;21.60;35.80;;;;;;5025431;28;20408;-68
2021/11/24 10:21:33;;;;;;;2.83;1.10;;;21.60;35.70;;;;;;5023036;28;20434;-73
2021/11/24 10:24:05;;;;;;;2.10;1.20;;;21.60;35.70;;;;;;5023074;28;20465;-69
2021/11/24 10:26:33;;;;;;;1.50;1.08;;;21.60;35.60;;;;;;5022506;28;20427;-72
2021/11/24 10:29:12;;;;;;;2.03;1.50;;;21.70;35.30;;;;;;5021577;28;20420;-70
2021/11/24 10:31:58;;;;;;;1.95;1.10;;;21.70;35.50;;;;;;5023001;28;20388;-70
2021/11/24 10:34:30;;;;;;;1.93;1.23;;;21.70;35.90;;;;;;5025011;28;20832;-71
2021/11/24 10:37:06;;;;;;;2.67;1.20;;;21.80;35.20;;;;;;5014235;28;20422;-69
2021/11/24 10:39:39;;;;;;;1.40;1.10;;;21.80;35.60;;;;;;5027477;28;20404;-69
2021/11/24 10:42:18;;;;;;;2.20;1.30;;;21.80;36.00;;;;;;5026945;28;20476;-71
2021/11/24 10:44:52;;;;;;;1.65;1.30;;;21.80;35.90;;;;;;5021317;28;20509;-69
2021/11/24 10:47:19;;;;;;;2.75;1.08;;;21.70;36.60;;;;;;5024757;28;20403;-71
2021/11/24 10:49:51;;;;;;;2.20;1.20;;;21.70;35.60;;;;;;5055418;28;20400;-68
2021/11/24 10:52:19;;;;;;;1.35;1.10;;;21.70;35.60;;;;;;5025393;28;20429;-69
2021/11/24 10:55:19;;;;;;;2.08;1.17;;;21.70;35.60;;;;;;5019774;28;20401;-70
2021/11/24 10:58:09;;;;;;;1.83;1.10;;;21.70;35.60;;;;;;5021630;28;20892;-69
2021/11/24 11:00:40;;;;;;;1.30;0.90;;;21.70;35.70;;;;;;5020946;28;20796;-71
2021/11/24 11:03:07;;;;;;;1.48;1.02;;;21.70;35.50;;;;;;5022657;28;20416;-70
2021/11/24 11:05:34;;;;;;;1.80;1.20;;;21.70;35.60;;;;;;5025480;28;20411;-69
2021/11/24 11:08:06;;;;;;;1.45;1.00;;;21.70;35.50;;;;;;5023147;28;20388;-68
2021/11/24 11:10:36;;;;;;;2.23;1.20;;;21.70;35.60;;;;;;5024790;28;20896;-71
2021/11/24 11:13:13;;;;;;;1.60;1.10;;;21.70;35.50;;;;;;5024968;28;20415;-72
2021/11/24 11:15:44;;;;;;;1.50;1.10;;;21.60;36.00;;;;;;5030521;28;20449;-71
2021/11/24 11:18:11;;;;;;;1.75;1.10;;;21.70;35.40;;;;;;5027575;28;20395;-71
2021/11/24 11:20:40;;;;;;;1.50;1.20;;;21.60;35.30;;;;;;5030751;28;20762;-70
2021/11/24 11:23:08;;;;;;;1.45;1.02;;;21.60;35.90;;;;;;5030360;28;20492;-72
2021/11/24 11:25:43;;;;;;;1.85;0.90;;;21.60;35.20;;;;;;5030402;28;20477;-72
2021/11/24 11:28:10;;;;;;;1.58;1.20;;;21.60;35.30;;;;;;5025386;28;20395;-68
2021/11/24 11:30:38;;;;;;;1.63;1.10;;;21.60;35.40;;;;;;5028960;28;20407;-69
2021/11/24 11:33:04;;;;;;;2.10;1.10;;;21.60;35.30;;;;;;5052461;28;20456;-69
2021/11/24 11:35:30;;;;;;;1.60;1.10;;;21.70;35.20;;;;;;5028987;28;20585;-69
2021/11/24 11:37:58;;;;;;;3.00;1.20;;;21.70;35.60;;;;;;5030301;28;20406;-69
2021/11/24 11:40:24;;;;;;;2.90;1.00;;;21.70;35.60;;;;;;5029411;28;20403;-71
2021/11/24 11:42:51;;;;;;;3.30;1.00;;;21.70;35.70;;;;;;5029055;28;20772;-70
2021/11/24 11:45:18;;;;;;;3.30;1.10;;;21.70;35.70;;;;;;5029982;28;20429;-69
2021/11/24 11:47:51;;;;;;;2.95;1.10;;;21.70;35.80;;;;;;5030102;28;20390;-69
2021/11/24 11:50:51;;;;;;;1.60;1.10;;;21.60;35.80;;;;;;5029303;28;20477;-70
2021/11/24 11:53:41;;;;;;;2.72;1.40;;;21.70;35.80;;;;;;5029923;28;20383;-68
2021/11/24 11:56:08;;;;;;;2.60;1.27;;;21.70;35.80;;;;;;5025358;28;20435;-69
2021/11/24 11:58:44;;;;;;;1.48;1.20;;;21.70;35.60;;;;;;5030157;28;20383;-69
2021/11/24 12:01:13;;;;;;;1.85;1.13;;;21.60;35.50;;;;;;5030239;28;20392;-70
2021/11/24 12:03:57;;;;;;;1.77;1.10;;;21.60;35.70;;;;;;5030206;28;20746;-71
2021/11/24 12:06:26;;;;;;;2.10;1.20;;;21.60;35.50;;;;;;5027381;28;20406;-73
2021/11/24 12:09:10;;;;;;;2.17;1.10;;;21.60;35.50;;;;;;5029016;28;20608;-71
2021/11/24 12:12:10;;;;;;;2.10;1.20;;;21.60;36.10;;;;;;5028755;28;20407;-72
2021/11/24 12:14:42;;;;;;;1.40;1.10;;;21.60;35.60;;;;;;5026501;28;20410;-69
2021/11/24 12:17:32;;;;;;;1.92;1.30;;;21.60;35.60;;;;;;5029666;28;20453;-71
2021/11/24 12:20:11;;;;;;;2.00;1.40;;;21.60;35.80;;;;;;5027776;28;20403;-72
2021/11/24 12:22:49;;;;;;;3.30;1.33;;;21.70;35.80;;;;;;5027503;28;20395;-70
2021/11/24 12:25:21;;;;;;;4.03;1.50;;;21.60;35.70;;;;;;5026668;28;20450;-72
2021/11/24 12:28:00;;;;;;;3.78;1.45;;;21.60;36.00;;;;;;5025442;28;20402;-70
2021/11/24 12:33:05;;;;;;;3.70;1.20;;;21.60;35.90;;;;;;5029157;28;20403;-72
2021/11/24 12:35:33;;;;;;;2.42;1.17;;;21.70;35.80;;;;;;5027406;28;20395;-71
2021/11/24 12:38:01;;;;;;;2.03;1.17;;;21.70;35.80;;;;;;5028658;28;20889;-71
2021/11/24 12:40:28;;;;;;;2.58;1.20;;;21.70;35.80;;;;;;5051828;28;20396;-69
2021/11/24 12:43:03;;;;;;;2.83;1.25;;;21.70;35.80;;;;;;5027028;28;20493;-68
2021/11/24 12:45:29;;;;;;;3.00;1.40;;;21.60;35.50;;;;;;5028161;28;20476;-72
2021/11/24 12:48:01;;;;;;;2.28;1.20;;;21.70;35.80;;;;;;5027872;28;20403;-68
2021/11/24 12:50:28;;;;;;;2.10;1.15;;;21.60;35.60;;;;;;5024820;28;20434;-69
2021/11/24 12:53:04;;;;;;;2.55;1.05;;;21.60;35.60;;;;;;5025477;28;20399;-68